createdAt,value
2022-12-11T00:00:46.290Z,14.90
2022-12-11T00:03:15.814Z,15.75
2022-12-11T00:05:43.497Z,13.65
2022-12-11T00:08:10.185Z,14.98
2022-12-11T00:10:37.972Z,12.85
2022-12-11T00:13:04.664Z,14.77
2022-12-11T00:15:31.099Z,14.27
2022-12-11T00:17:57.489Z,14.35
2022-12-11T00:20:23.949Z,14.77
2022-12-11T00:22:50.429Z,14.82
2022-12-11T00:25:16.984Z,14.43
2022-12-11T00:27:45.869Z,15.23
2022-12-11T00:30:12.779Z,14.30
2022-12-11T00:32:39.139Z,12.63
2022-12-11T00:35:05.991Z,13.63
2022-12-11T00:37:32.594Z,13.10
2022-12-11T00:39:59.069Z,12.90
2022-12-11T00:42:25.482Z,12.77
2022-12-11T00:44:52.176Z,12.35
2022-12-11T00:47:18.567Z,11.32
2022-12-11T00:49:49.522Z,11.23
2022-12-11T00:52:17.904Z,12.95
2022-12-11T00:54:44.728Z,11.43
2022-12-11T00:57:11.248Z,12.32
2022-12-11T00:59:38.458Z,11.88
2022-12-11T01:02:04.840Z,11.05
2022-12-11T01:04:31.291Z,11.85
2022-12-11T01:06:57.849Z,12.75
2022-12-11T01:09:42.784Z,11.38
2022-12-11T01:12:09.225Z,11.73
2022-12-11T01:14:35.656Z,12.25
2022-12-11T01:17:02.105Z,11.95
2022-12-11T01:19:28.560Z,12.13
2022-12-11T01:21:54.982Z,10.95
2022-12-11T01:24:21.390Z,10.63
2022-12-11T01:26:47.802Z,11.30
2022-12-11T01:29:14.355Z,10.55
2022-12-11T01:31:41.281Z,10.55
2022-12-11T01:34:07.696Z,10.95
2022-12-11T01:36:34.130Z,10.88
2022-12-11T01:39:00.681Z,11.57
2022-12-11T01:41:27.145Z,11.02
2022-12-11T01:44:01.051Z,12.10
2022-12-11T01:46:28.790Z,11.90
2022-12-11T01:48:56.113Z,10.52
2022-12-11T01:51:23.725Z,10.10
2022-12-11T01:53:55.990Z,10.35
2022-12-11T01:56:22.972Z,11.65
2022-12-11T01:58:56.415Z,10.90
2022-12-11T02:01:45.224Z,9.93
2022-12-11T02:04:13.513Z,11.52
2022-12-11T02:06:43.279Z,9.23
2022-12-11T02:09:14.372Z,10.60
2022-12-11T02:11:59.081Z,9.68
2022-12-11T02:14:48.669Z,9.25
2022-12-11T02:17:33.885Z,9.52
2022-12-11T02:20:38.042Z,9.98
2022-12-11T02:23:13.615Z,9.38
2022-12-11T02:26:01.571Z,9.35
2022-12-11T02:29:09.828Z,11.10
2022-12-11T02:31:44.895Z,10.63
2022-12-11T02:34:16.786Z,10.48
2022-12-11T02:36:46.517Z,9.27
2022-12-11T02:39:15.876Z,9.52
2022-12-11T02:41:46.415Z,9.77
2022-12-11T02:44:14.884Z,9.80
2022-12-11T02:46:43.881Z,10.77
2022-12-11T02:49:12.613Z,10.32
2022-12-11T02:51:44.237Z,11.85
2022-12-11T02:54:16.928Z,11.32
2022-12-11T02:56:48.680Z,11.98
2022-12-11T02:59:23.858Z,10.77
2022-12-11T03:01:50.610Z,12.00
2022-12-11T03:04:17.429Z,12.00
2022-12-11T03:06:49.358Z,11.85
2022-12-11T03:09:15.781Z,11.57
2022-12-11T03:11:42.226Z,11.23
2022-12-11T03:14:08.997Z,11.07
2022-12-11T03:16:38.433Z,10.95
2022-12-11T03:19:07.839Z,10.10
2022-12-11T03:21:47.310Z,10.43
2022-12-11T03:24:45.670Z,12.30
2022-12-11T03:27:19.727Z,12.65
2022-12-11T03:29:58.017Z,11.85
2022-12-11T03:32:29.667Z,11.85
2022-12-11T03:35:05.294Z,11.95
2022-12-11T03:37:36.287Z,11.10
2022-12-11T03:40:08.329Z,11.25
2022-12-11T03:42:35.766Z,13.27
2022-12-11T03:45:03.161Z,12.55
2022-12-11T03:47:30.906Z,11.48
2022-12-11T03:49:59.572Z,11.90
2022-12-11T03:52:27.868Z,12.13
2022-12-11T03:54:57.892Z,11.95
2022-12-11T03:57:27.252Z,12.77
2022-12-11T03:59:53.607Z,12.30
2022-12-11T04:02:20.054Z,12.18
2022-12-11T04:04:46.435Z,11.95
2022-12-11T04:07:12.878Z,16.15
2022-12-11T04:09:39.268Z,14.50
2022-12-11T04:12:06.198Z,13.85
2022-12-11T04:14:51.149Z,13.57
2022-12-11T04:17:37.490Z,13.40
2022-12-11T04:20:24.730Z,13.40
2022-12-11T04:23:09.573Z,12.18
2022-12-11T04:25:35.920Z,13.50
2022-12-11T04:28:02.308Z,13.15
2022-12-11T04:30:33.937Z,11.68
2022-12-11T04:33:01.003Z,11.63
2022-12-11T04:35:27.515Z,11.75
2022-12-11T04:37:53.931Z,12.98
2022-12-11T04:40:20.883Z,13.27
2022-12-11T04:42:48.055Z,13.10
2022-12-11T04:45:14.522Z,12.65
2022-12-11T04:47:41.545Z,11.90
2022-12-11T04:50:13.232Z,10.98
2022-12-11T04:52:40.184Z,11.90
2022-12-11T04:55:08.163Z,11.25
2022-12-11T04:57:34.969Z,11.48
2022-12-11T05:00:02.000Z,11.82
2022-12-11T05:02:28.418Z,11.35
2022-12-11T05:04:54.907Z,11.73
2022-12-11T05:07:21.350Z,13.07
2022-12-11T05:09:47.738Z,12.57
2022-12-11T05:12:14.120Z,12.80
2022-12-11T05:14:40.609Z,13.30
2022-12-11T05:17:07.012Z,11.98
2022-12-11T05:19:33.605Z,12.68
2022-12-11T05:22:00.024Z,12.95
2022-12-11T05:24:26.425Z,12.57
2022-12-11T05:26:52.837Z,13.35
2022-12-11T05:29:19.194Z,13.27
2022-12-11T05:31:45.579Z,14.80
2022-12-11T05:34:11.988Z,16.00
2022-12-11T05:36:38.523Z,14.25
2022-12-11T05:39:05.203Z,14.57
2022-12-11T05:44:22.375Z,14.20
2022-12-11T05:46:49.730Z,13.90
2022-12-11T05:49:19.766Z,15.50
2022-12-11T05:51:46.602Z,15.38
2022-12-11T05:54:13.013Z,14.23
2022-12-11T05:56:39.653Z,13.38
2022-12-11T05:59:06.968Z,15.13
2022-12-11T06:01:42.177Z,14.75
2022-12-11T06:04:10.266Z,16.52
2022-12-11T06:06:37.449Z,13.57
2022-12-11T06:09:04.959Z,16.80
2022-12-11T06:11:32.910Z,14.32
2022-12-11T06:14:00.890Z,16.05
2022-12-11T06:16:27.743Z,14.50
2022-12-11T06:18:57.996Z,14.75
2022-12-11T06:21:30.171Z,16.05
2022-12-11T06:23:58.900Z,16.48
2022-12-11T06:26:25.814Z,16.10
2022-12-11T06:28:52.229Z,18.02
2022-12-11T06:31:19.261Z,18.05
2022-12-11T06:33:45.970Z,18.88
2022-12-11T06:36:15.708Z,17.92
2022-12-11T06:38:42.444Z,19.00
2022-12-11T06:41:09.653Z,19.98
2022-12-11T06:43:38.458Z,19.55
2022-12-11T06:46:06.330Z,21.20
2022-12-11T06:48:33.630Z,22.33
2022-12-11T06:51:00.388Z,23.63
2022-12-11T06:53:26.751Z,19.27
2022-12-11T06:55:53.127Z,22.08
2022-12-11T06:58:19.538Z,21.42
2022-12-11T07:00:46.394Z,20.15
2022-12-11T07:03:13.678Z,21.58
2022-12-11T07:05:40.178Z,21.33
2022-12-11T07:08:07.389Z,19.77
2022-12-11T07:10:34.073Z,20.02
2022-12-11T07:13:00.433Z,20.35
2022-12-11T07:15:26.805Z,20.15
2022-12-11T07:17:53.206Z,21.98
2022-12-11T07:20:19.652Z,18.77
2022-12-11T07:22:46.759Z,17.85
2022-12-11T07:25:13.897Z,18.85
2022-12-11T07:27:41.492Z,18.63
2022-12-11T07:30:09.213Z,20.50
2022-12-11T07:32:35.684Z,19.75
2022-12-11T07:35:02.164Z,19.27
2022-12-11T07:37:28.524Z,19.27
2022-12-11T07:39:54.937Z,20.02
2022-12-11T07:42:21.396Z,20.48
2022-12-11T07:44:48.515Z,20.27
2022-12-11T07:47:14.884Z,21.52
2022-12-11T07:49:41.337Z,24.00
2022-12-11T07:52:07.791Z,19.92
2022-12-11T07:54:34.139Z,20.45
2022-12-11T07:57:00.533Z,18.02
2022-12-11T07:59:26.900Z,18.35
2022-12-11T08:01:53.347Z,17.80
2022-12-11T08:04:19.768Z,19.15
2022-12-11T08:06:46.199Z,20.90
2022-12-11T08:09:20.712Z,20.85
2022-12-11T08:11:54.293Z,17.27
2022-12-11T08:14:20.898Z,17.50
2022-12-11T08:16:47.680Z,17.38
2022-12-11T08:19:14.633Z,17.73
2022-12-11T08:21:41.165Z,18.75
2022-12-11T08:24:08.830Z,19.52
2022-12-11T08:26:35.446Z,17.13
2022-12-11T08:29:02.660Z,17.50
2022-12-11T08:31:29.806Z,18.98
2022-12-11T08:33:56.894Z,20.35
2022-12-11T08:36:23.914Z,19.60
2022-12-11T08:38:51.713Z,16.98
2022-12-11T08:41:21.234Z,17.05
2022-12-11T08:43:48.384Z,18.60
2022-12-11T08:46:15.333Z,17.42
2022-12-11T08:48:43.252Z,16.92
2022-12-11T08:51:14.871Z,20.25
2022-12-11T08:53:41.477Z,18.10
2022-12-11T08:56:13.156Z,17.75
2022-12-11T08:58:39.576Z,18.05
2022-12-11T09:01:12.199Z,16.92
2022-12-11T09:03:39.998Z,17.52
2022-12-11T09:06:12.161Z,18.58
2022-12-11T09:08:38.700Z,16.52
2022-12-11T09:11:07.405Z,21.23
2022-12-11T09:13:33.991Z,18.63
2022-12-11T09:16:00.610Z,18.20
2022-12-11T09:18:27.279Z,18.65
2022-12-11T09:21:05.321Z,16.92
2022-12-11T09:23:32.063Z,19.35
2022-12-11T09:25:58.742Z,17.13
2022-12-11T09:28:25.960Z,17.63
2022-12-11T09:30:52.776Z,16.95
2022-12-11T09:33:19.226Z,16.48
2022-12-11T09:35:45.589Z,16.65
2022-12-11T09:38:11.964Z,16.13
2022-12-11T09:40:43.102Z,15.50
2022-12-11T09:43:20.042Z,16.50
2022-12-11T09:45:46.633Z,16.63
2022-12-11T09:48:22.478Z,16.50
2022-12-11T09:50:53.814Z,17.58
2022-12-11T09:53:36.991Z,20.90
2022-12-11T09:56:06.422Z,18.92
2022-12-11T09:58:56.028Z,21.20
2022-12-11T10:01:30.144Z,18.83
2022-12-11T10:03:59.508Z,21.02
2022-12-11T10:06:36.506Z,20.77
2022-12-11T10:09:25.463Z,19.63
2022-12-11T10:12:21.086Z,19.40
2022-12-11T10:15:15.128Z,19.70
2022-12-11T10:17:44.584Z,18.25
2022-12-11T10:20:29.227Z,19.25
2022-12-11T10:22:56.948Z,18.67
2022-12-11T10:25:29.621Z,18.00
2022-12-11T10:27:56.197Z,19.05
2022-12-11T10:30:25.973Z,18.13
2022-12-11T10:33:08.931Z,19.85
2022-12-11T10:35:52.990Z,18.05
2022-12-11T10:38:31.120Z,17.55
2022-12-11T10:41:01.795Z,16.70
2022-12-11T10:43:40.268Z,17.50
2022-12-11T10:46:12.989Z,23.88
2022-12-11T10:48:54.368Z,17.75
2022-12-11T10:51:32.883Z,19.48
2022-12-11T10:54:30.912Z,19.02
2022-12-11T10:56:58.736Z,18.20
2022-12-11T10:59:38.798Z,17.67
2022-12-11T11:02:07.087Z,18.45
2022-12-11T11:04:37.754Z,19.40
2022-12-11T11:07:23.561Z,17.10
2022-12-11T11:09:54.259Z,18.75
2022-12-11T11:12:22.526Z,16.58
2022-12-11T11:15:02.484Z,17.45
2022-12-11T11:17:34.962Z,17.38
2022-12-11T11:20:11.974Z,19.58
2022-12-11T11:22:49.807Z,18.60
2022-12-11T11:25:28.712Z,18.10
2022-12-11T11:27:56.639Z,17.88
2022-12-11T11:30:31.852Z,17.15
2022-12-11T11:33:02.227Z,17.10
2022-12-11T11:38:18.762Z,17.02
2022-12-11T11:41:04.880Z,15.02
2022-12-11T11:43:44.233Z,16.02
2022-12-11T11:46:29.347Z,17.45
2022-12-11T11:49:13.069Z,17.15
2022-12-11T11:52:11.953Z,18.63
2022-12-11T11:54:57.069Z,17.33
2022-12-11T11:57:33.763Z,16.88
2022-12-11T12:00:10.799Z,17.70
2022-12-11T12:02:37.628Z,16.70
2022-12-11T12:05:04.528Z,16.50
2022-12-11T12:07:53.729Z,16.20
2022-12-11T12:10:40.288Z,16.73
2022-12-11T12:13:47.710Z,17.67
2022-12-11T12:16:22.906Z,16.55
2022-12-11T12:19:25.857Z,16.05
2022-12-11T12:21:53.114Z,15.90
2022-12-11T12:24:49.035Z,15.70
2022-12-11T12:27:50.992Z,16.10
2022-12-11T12:30:22.006Z,16.42
2022-12-11T12:33:20.952Z,16.83
2022-12-11T12:36:02.085Z,15.45
2022-12-11T12:39:02.392Z,15.93
2022-12-11T12:42:07.105Z,16.98
2022-12-11T12:44:59.492Z,16.88
2022-12-11T12:47:30.333Z,15.52
2022-12-11T12:49:59.438Z,14.65
2022-12-11T12:52:31.980Z,15.80
2022-12-11T12:55:16.084Z,15.55
2022-12-11T12:57:49.842Z,16.25
2022-12-11T13:00:30.886Z,15.70
2022-12-11T13:02:58.413Z,15.75
2022-12-11T13:05:32.775Z,16.45
2022-12-11T13:08:02.477Z,15.75
2022-12-11T13:10:41.449Z,17.55
2022-12-11T13:13:34.123Z,17.33
2022-12-11T13:16:17.333Z,16.50
2022-12-11T13:18:47.416Z,15.88
2022-12-11T13:21:35.954Z,16.83
2022-12-11T13:24:25.727Z,16.85
2022-12-11T13:26:52.425Z,16.50
2022-12-11T13:29:35.621Z,17.05
2022-12-11T13:32:23.402Z,15.85
2022-12-11T13:34:57.351Z,15.82
2022-12-11T13:37:33.847Z,16.55
2022-12-11T13:40:05.563Z,16.88
2022-12-11T13:42:35.300Z,16.50
2022-12-11T13:45:03.129Z,14.80
2022-12-11T13:47:32.361Z,17.05
2022-12-11T13:50:28.261Z,16.63
2022-12-11T13:52:55.940Z,17.02
2022-12-11T13:55:28.454Z,18.40
2022-12-11T13:57:54.822Z,17.85
2022-12-11T14:00:30.341Z,16.75
2022-12-11T14:02:59.162Z,17.85
2022-12-11T14:05:25.534Z,17.67
2022-12-11T14:07:55.403Z,16.27
2022-12-11T14:10:27.862Z,17.13
2022-12-11T14:13:05.337Z,17.77
2022-12-11T14:15:33.487Z,15.82
2022-12-11T14:18:00.790Z,17.02
2022-12-11T14:20:29.771Z,16.30
2022-12-11T14:23:06.574Z,16.52
2022-12-11T14:25:33.542Z,17.60
2022-12-11T14:28:01.626Z,18.15
2022-12-11T14:30:31.633Z,17.38
2022-12-11T14:33:04.501Z,17.80
2022-12-11T14:35:39.458Z,17.20
2022-12-11T14:38:24.304Z,15.82
2022-12-11T14:40:56.363Z,16.75
2022-12-11T14:43:28.782Z,16.52
2022-12-11T14:45:59.073Z,16.10
2022-12-11T14:50:58.901Z,14.90
2022-12-11T14:53:37.012Z,15.68
2022-12-11T14:56:07.072Z,16.17
2022-12-11T14:58:40.430Z,17.95
2022-12-11T15:01:23.922Z,17.40
2022-12-11T15:03:50.415Z,18.02
2022-12-11T15:06:26.174Z,18.33
2022-12-11T15:08:53.509Z,18.10
2022-12-11T15:11:20.346Z,17.60
2022-12-11T15:13:54.351Z,18.50
2022-12-11T15:16:22.891Z,17.92
2022-12-11T15:18:51.335Z,17.70
2022-12-11T15:21:18.549Z,17.95
2022-12-11T15:23:44.814Z,17.48
2022-12-11T15:26:11.158Z,17.20
2022-12-11T15:28:39.092Z,18.25
2022-12-11T15:31:20.796Z,16.73
2022-12-11T15:33:47.897Z,18.65
2022-12-11T15:36:30.895Z,17.27
2022-12-11T15:38:58.126Z,16.98
2022-12-11T15:41:25.247Z,16.58
2022-12-11T15:43:58.889Z,14.93
2022-12-11T15:46:26.075Z,14.70
2022-12-11T15:48:52.546Z,15.50
2022-12-11T15:51:18.923Z,15.05
2022-12-11T15:53:45.264Z,14.93
2022-12-11T15:56:14.814Z,14.70
2022-12-11T15:58:42.259Z,15.82
2022-12-11T16:01:08.845Z,14.57
2022-12-11T16:03:35.453Z,15.93
2022-12-11T16:06:01.870Z,15.80
2022-12-11T16:08:28.259Z,14.82
2022-12-11T16:10:55.252Z,17.08
2022-12-11T16:13:22.401Z,16.58
2022-12-11T16:15:51.763Z,16.00
2022-12-11T16:18:21.958Z,15.60
2022-12-11T16:20:49.992Z,15.30
2022-12-11T16:23:17.247Z,14.70
2022-12-11T16:25:45.340Z,16.33
2022-12-11T16:28:14.693Z,16.55
2022-12-11T16:30:43.314Z,15.55
2022-12-11T16:33:12.908Z,16.48
2022-12-11T16:35:40.151Z,16.60
2022-12-11T16:38:07.673Z,16.15
2022-12-11T16:40:34.003Z,16.23
2022-12-11T16:43:00.323Z,14.88
2022-12-11T16:45:27.344Z,15.43
2022-12-11T16:47:54.324Z,17.05
2022-12-11T16:50:20.992Z,15.85
2022-12-11T16:52:47.411Z,16.92
2022-12-11T16:55:14.863Z,16.30
2022-12-11T16:57:41.922Z,16.27
2022-12-11T17:00:12.017Z,16.52
2022-12-11T17:02:38.393Z,15.55
2022-12-11T17:05:05.124Z,16.33
2022-12-11T17:07:32.745Z,14.70
2022-12-11T17:10:00.574Z,15.63
2022-12-11T17:12:27.908Z,15.30
2022-12-11T17:14:55.398Z,15.27
2022-12-11T17:17:21.722Z,15.32
2022-12-11T17:19:48.074Z,15.27
2022-12-11T17:22:14.412Z,15.23
2022-12-11T17:24:40.799Z,15.68
2022-12-11T17:27:07.123Z,15.13
2022-12-11T17:29:33.490Z,15.45
2022-12-11T17:31:59.838Z,14.98
2022-12-11T17:34:26.174Z,15.88
2022-12-11T17:36:52.516Z,15.18
2022-12-11T17:39:18.839Z,15.35
2022-12-11T17:41:45.217Z,14.98
2022-12-11T17:44:11.618Z,15.20
2022-12-11T17:46:38.079Z,15.10
2022-12-11T17:49:05.172Z,15.93
2022-12-11T17:51:31.555Z,16.02
2022-12-11T17:53:58.282Z,15.18
2022-12-11T17:56:25.581Z,15.73
2022-12-11T17:58:51.970Z,17.65
2022-12-11T18:01:19.372Z,16.10
2022-12-11T18:03:46.824Z,15.90
2022-12-11T18:06:15.374Z,15.60
2022-12-11T18:08:42.653Z,16.00
2022-12-11T18:11:17.606Z,15.90
2022-12-11T18:13:45.150Z,16.10
2022-12-11T18:16:14.648Z,16.10
2022-12-11T18:18:41.038Z,13.27
2022-12-11T18:21:10.380Z,15.60
2022-12-11T18:23:36.737Z,15.43
2022-12-11T18:26:03.071Z,15.70
2022-12-11T18:28:31.684Z,16.00
2022-12-11T18:31:02.131Z,16.40
2022-12-11T18:33:29.886Z,15.98
2022-12-11T18:35:56.507Z,16.23
2022-12-11T18:38:23.163Z,16.20
2022-12-11T18:40:49.499Z,15.52
2022-12-11T18:43:15.873Z,16.90
2022-12-11T18:45:45.086Z,15.40
2022-12-11T18:48:11.992Z,15.70
2022-12-11T18:50:38.329Z,16.70
2022-12-11T18:53:04.691Z,16.48
2022-12-11T18:55:31.027Z,15.88
2022-12-11T18:57:57.341Z,16.13
2022-12-11T19:00:23.725Z,15.57
2022-12-11T19:02:52.152Z,15.85
2022-12-11T19:05:18.617Z,16.20
2022-12-11T19:07:45.048Z,16.13
2022-12-11T19:10:11.710Z,16.48
2022-12-11T19:12:38.103Z,15.98
2022-12-11T19:15:04.893Z,16.88
2022-12-11T19:17:31.206Z,17.58
2022-12-11T19:19:57.650Z,16.55
2022-12-11T19:22:24.004Z,15.95
2022-12-11T19:24:51.078Z,16.88
2022-12-11T19:27:17.441Z,15.90
2022-12-11T19:29:43.791Z,15.82
2022-12-11T19:32:10.130Z,14.73
2022-12-11T19:34:38.413Z,15.93
2022-12-11T19:37:04.786Z,15.75
2022-12-11T19:39:31.150Z,15.95
2022-12-11T19:41:57.553Z,15.48
2022-12-11T19:44:23.911Z,15.70
2022-12-11T19:46:50.389Z,15.45
2022-12-11T19:49:16.981Z,15.50
2022-12-11T19:51:43.552Z,14.48
2022-12-11T19:54:13.499Z,14.98
2022-12-11T19:56:40.475Z,15.50
2022-12-11T19:59:09.729Z,14.93
2022-12-11T20:01:37.732Z,14.13
2022-12-11T20:04:10.611Z,14.25
2022-12-11T20:06:41.681Z,14.65
2022-12-11T20:09:11.684Z,13.93
2022-12-11T20:11:43.745Z,14.98
2022-12-11T20:14:21.981Z,14.88
2022-12-11T20:17:18.698Z,13.70
2022-12-11T20:19:35.342Z,13.35
2022-12-11T20:22:01.755Z,14.02
2022-12-11T20:24:28.120Z,13.98
2022-12-11T20:26:54.544Z,14.93
2022-12-11T20:29:20.876Z,14.77
2022-12-11T20:31:50.331Z,15.02
2022-12-11T20:34:16.953Z,15.20
2022-12-11T20:36:43.390Z,17.52
2022-12-11T20:39:10.353Z,15.48
2022-12-11T20:41:36.687Z,17.65
2022-12-11T20:44:03.093Z,18.55
2022-12-11T20:46:29.465Z,17.27
2022-12-11T20:48:58.666Z,18.15
2022-12-11T20:51:26.670Z,17.10
2022-12-11T20:54:01.083Z,17.88
2022-12-11T20:56:29.546Z,16.50
2022-12-11T20:58:56.895Z,16.48
2022-12-11T21:01:25.632Z,16.35
2022-12-11T21:03:53.424Z,16.13
2022-12-11T21:06:19.667Z,18.67
2022-12-11T21:08:46.074Z,17.30
2022-12-11T21:11:12.478Z,15.55
2022-12-11T21:13:38.912Z,16.50
2022-12-11T21:16:06.931Z,15.23
2022-12-11T21:18:33.903Z,16.15
2022-12-11T21:21:00.364Z,17.05
2022-12-11T21:23:26.869Z,16.85
2022-12-11T21:25:53.889Z,16.25
2022-12-11T21:28:20.844Z,17.10
2022-12-11T21:30:47.353Z,17.35
2022-12-11T21:33:13.708Z,18.45
2022-12-11T21:35:40.050Z,18.55
2022-12-11T21:38:06.369Z,17.80
2022-12-11T21:40:32.710Z,17.65
2022-12-11T21:42:59.090Z,17.90
2022-12-11T21:45:59.161Z,17.25
2022-12-11T21:48:11.997Z,17.15
2022-12-11T21:50:38.345Z,16.35
2022-12-11T21:53:04.774Z,16.02
2022-12-11T21:55:31.677Z,16.85
2022-12-11T21:57:58.011Z,17.13
2022-12-11T22:00:24.705Z,16.77
2022-12-11T22:02:51.184Z,16.38
2022-12-11T22:05:17.542Z,16.80
2022-12-11T22:07:43.868Z,16.42
2022-12-11T22:10:10.590Z,16.98
2022-12-11T22:12:36.936Z,16.55
2022-12-11T22:15:03.786Z,17.02
2022-12-11T22:17:31.527Z,18.08
2022-12-11T22:19:57.855Z,17.27
2022-12-11T22:22:24.175Z,17.90
2022-12-11T22:24:50.751Z,19.88
2022-12-11T22:27:23.322Z,17.20
2022-12-11T22:29:50.180Z,17.58
2022-12-11T22:32:16.537Z,18.58
2022-12-11T22:34:42.908Z,17.90
2022-12-11T22:37:09.238Z,17.40
2022-12-11T22:39:35.608Z,16.90
2022-12-11T22:42:01.934Z,15.93
2022-12-11T22:44:28.332Z,15.48
2022-12-11T22:46:54.657Z,15.55
2022-12-11T22:49:21.059Z,15.45
2022-12-11T22:51:47.505Z,15.50
2022-12-11T22:54:13.866Z,15.65
2022-12-11T22:56:40.326Z,15.95
2022-12-11T22:59:07.513Z,14.85
2022-12-11T23:01:34.165Z,14.20
2022-12-11T23:04:00.493Z,15.25
2022-12-11T23:06:26.819Z,14.27
2022-12-11T23:08:57.451Z,14.10
2022-12-11T23:11:27.150Z,14.80
2022-12-11T23:13:54.575Z,14.43
2022-12-11T23:16:22.616Z,15.00
2022-12-11T23:18:49.014Z,14.27
2022-12-11T23:21:15.412Z,14.90
2022-12-11T23:23:42.762Z,14.25
2022-12-11T23:26:11.872Z,14.90
2022-12-11T23:28:38.419Z,15.02
2022-12-11T23:31:05.050Z,13.70
2022-12-11T23:33:31.549Z,14.52
2022-12-11T23:35:58.413Z,14.35
2022-12-11T23:38:24.970Z,14.52
2022-12-11T23:40:51.680Z,14.30
2022-12-11T23:43:18.173Z,15.05
2022-12-11T23:45:45.833Z,14.82
2022-12-11T23:48:12.789Z,15.40
2022-12-11T23:50:40.734Z,14.85
2022-12-11T23:53:07.520Z,14.20
2022-12-11T23:55:33.860Z,14.27
2022-12-11T23:58:00.183Z,13.52
